Accueil
METAR-TAF:

METAR-TAF

Aéroports :

Aéroport d'Alger - Houari Boumédiène

Alger, Algérie

latitude: 36-43N, longitude: 003-15E, altitude: 25 m

Observation

Le bulletin a été fait il y a 31 minutes, à 05:30 UTC
Vent 2 kt de direction variable
Température 25°C
Humidité 89%
Pression 1016 hPa
Visibilité: 9000 m
Quelques nuages à une hauteur de 2300 ft

METAR: DAAG 190530Z VRB02KT 9000 FEW023 25/23 Q1016

Heure: 07:01 (06:01 UTC)

Prévision

Le bulletin a été fait il y a 1 heure et 1 minutes, à 05:00 UTC
Prévision valable du 19 à 06 UTC au 20 à 06 UTC
Vent 6 kt de sud-ouest
Visibilité 10 km ou plus
Quelques nuages à une hauteur de 2600 ft
Evoluant progressivement
du 19 à 09 UTC au 19 à 12 UTC
Vent 10 kt de ouest/nord-ouest
Evoluant progressivement
du 19 à 17 UTC au 19 à 19 UTC
Vent 2 kt de direction variable

TAF: DAAG 190500Z 1906/2006 23006KT 9999 FEW026 BECMG 1909/1912 30010KT BECMG 1917/1919 VRB02KT

Observations et prévisions météorologiques de plus de 4000 aéroports (messages METAR et TAF).

Les stations disponibles sont représentées par des disques jaunes et rouges sur la carte.

Passer la souris dessus pour voir le nom de la station.

Cliquer dessus pour voir les observations et prévisions météorologiques.

Pour changer de carte: cliquez sur les boutons verts avec une croix noire pour zoomer, sur le bouton vert avec un tiret pour effectuer un zoom arrière, ou sur les flèches vertes pour les cartes adjacentes.


METAR-TAF: